Rechercher aéroport 
image banner adimage banner adimage banner ad
image banner ad

CL01 - Eagle Field

Situé à Dos Palos, United States

ICAO - CL01, IATA -

Données fournies par Airmate  

Information générale

Coordonnées: N36°53'60" W120°40'4"
Élévation : 153 feet MSL.
Variation magnétique : 15° East
Voir autres Aéroports à California

Données opérationnelles

Special qualification required
Heure actuelle UTC:
Heure actuelle locale:
Météo à : KMCE - Merced Rgnl/Macready Field ( 45 km )
METAR: KMCE 262253Z AUTO 30005KT 10SM CLR 36/06 A2983 RMK AO2 SLP099 T03560056
TAF: KMCE 261720Z 2618/2718 30007KT P6SM BKN250
Voir NOTAMs / SUP AIP / TFR affectant cet aéroport [VIEW]
Fréquences de communication: [VIEW]

Pistes:

Identifiant RWYQFULongueur (ft)Largeur (ft)SurfaceLDA (ft)
12230060ASPH
30230060ASPH

Coordonnées de l'aéroport

Adresse: Dos Palos United States

Vue satellite de CL01